createdAt,value
2022-11-24T00:00:35.284Z,41.09
2022-11-24T00:01:35.311Z,40.93
2022-11-24T00:02:35.374Z,41.09
2022-11-24T00:03:35.505Z,40.93
2022-11-24T00:04:35.562Z,41.25
2022-11-24T00:05:35.232Z,42.22
2022-11-24T00:06:35.268Z,42.70
2022-11-24T00:08:55.097Z,41.09
2022-11-24T00:09:56.179Z,41.73
2022-11-24T00:10:56.090Z,42.22
2022-11-24T00:11:56.062Z,41.25
2022-11-24T00:12:56.050Z,42.22
2022-11-24T00:13:56.046Z,41.09
2022-11-24T00:14:56.042Z,44.96
2022-11-24T00:15:56.005Z,42.06
2022-11-24T00:16:56.169Z,45.76
2022-11-24T00:17:55.997Z,42.54
2022-11-24T00:18:55.975Z,40.61
2022-11-24T00:19:55.951Z,42.06
2022-11-24T00:20:55.939Z,58.33
2022-11-24T00:21:56.390Z,42.38
2022-11-24T00:22:55.929Z,41.89
2022-11-24T00:23:55.925Z,42.06
2022-11-24T00:24:55.887Z,41.09
2022-11-24T00:25:55.871Z,40.93
2022-11-24T00:26:55.876Z,41.41
2022-11-24T00:27:55.850Z,40.77
2022-11-24T00:28:55.830Z,43.18
2022-11-24T00:29:55.831Z,43.18
2022-11-24T00:30:55.844Z,45.12
2022-11-24T00:31:55.800Z,42.86
2022-11-24T00:32:56.088Z,44.15
2022-11-24T00:33:55.803Z,41.73
2022-11-24T00:34:55.755Z,42.06
2022-11-24T00:35:55.740Z,42.06
2022-11-24T00:36:55.745Z,42.06
2022-11-24T00:37:55.716Z,41.57
2022-11-24T00:38:55.726Z,54.14
2022-11-24T00:39:55.686Z,41.57
2022-11-24T00:40:55.683Z,41.09
2022-11-24T00:41:55.683Z,41.09
2022-11-24T00:42:55.962Z,44.31
2022-11-24T00:43:55.641Z,41.25
2022-11-24T00:44:55.643Z,42.86
2022-11-24T00:45:55.727Z,41.73
2022-11-24T00:46:55.736Z,43.34
2022-11-24T00:47:55.601Z,41.25
2022-11-24T00:48:55.600Z,40.61
2022-11-24T00:49:55.612Z,43.83
2022-11-24T00:50:55.556Z,44.31
2022-11-24T00:51:55.567Z,40.77
2022-11-24T00:52:55.874Z,40.77
2022-11-24T00:53:55.501Z,60.26
2022-11-24T00:54:55.500Z,49.63
2022-11-24T00:55:55.463Z,40.77
2022-11-24T00:56:55.455Z,41.09
2022-11-24T00:57:55.456Z,40.61
2022-11-24T00:58:55.447Z,40.61
2022-11-24T00:59:56.248Z,40.77
2022-11-24T01:00:55.547Z,40.77
2022-11-24T01:01:55.423Z,40.61
2022-11-24T01:02:55.484Z,41.09
2022-11-24T01:03:55.391Z,58.97
2022-11-24T01:04:55.359Z,40.93
2022-11-24T01:05:55.331Z,40.61
2022-11-24T01:06:55.499Z,40.28
2022-11-24T01:07:55.895Z,40.28
2022-11-24T01:08:55.644Z,41.73
2022-11-24T01:09:55.307Z,41.09
2022-11-24T01:10:55.273Z,62.52
2022-11-24T01:11:55.271Z,40.61
2022-11-24T01:12:55.420Z,41.09
2022-11-24T01:13:55.242Z,40.61
2022-11-24T01:14:55.217Z,41.09
2022-11-24T01:15:55.225Z,39.80
2022-11-24T01:16:55.242Z,40.44
2022-11-24T01:17:55.187Z,41.57
2022-11-24T01:18:55.175Z,47.21
2022-11-24T01:19:55.165Z,41.25
2022-11-24T01:20:55.409Z,40.93
2022-11-24T01:21:55.404Z,41.57
2022-11-24T01:22:55.143Z,44.31
2022-11-24T01:23:55.101Z,40.93
2022-11-24T01:24:55.129Z,41.25
2022-11-24T01:25:55.212Z,41.41
2022-11-24T01:26:55.323Z,39.16
2022-11-24T01:27:55.053Z,42.06
2022-11-24T01:28:55.043Z,40.44
2022-11-24T01:29:55.097Z,42.06
2022-11-24T01:30:55.071Z,41.73
2022-11-24T01:31:55.264Z,42.22
2022-11-24T01:32:55.244Z,43.67
2022-11-24T01:33:55.277Z,42.70
2022-11-24T01:34:54.954Z,43.02
2022-11-24T01:35:54.973Z,43.18
2022-11-24T01:36:54.953Z,44.15
2022-11-24T01:37:55.414Z,45.12
2022-11-24T01:38:54.912Z,42.54
2022-11-24T01:39:55.141Z,41.57
2022-11-24T01:40:54.875Z,40.77
2022-11-24T01:41:54.881Z,39.64
2022-11-24T01:42:54.885Z,40.44
2022-11-24T01:43:54.854Z,40.61
2022-11-24T01:44:54.851Z,40.44
2022-11-24T01:45:55.547Z,40.77
2022-11-24T01:46:55.036Z,40.61
2022-11-24T01:47:55.118Z,59.62
2022-11-24T01:48:55.091Z,49.63
2022-11-24T01:49:54.798Z,40.61
2022-11-24T01:50:54.757Z,40.61
2022-11-24T01:51:55.652Z,40.44
2022-11-24T01:52:54.749Z,40.61
2022-11-24T01:53:54.708Z,41.41
2022-11-24T01:54:54.704Z,42.70
2022-11-24T01:55:54.671Z,40.61
2022-11-24T01:56:54.679Z,41.09
2022-11-24T01:57:54.676Z,40.44
2022-11-24T01:58:54.639Z,40.44
2022-11-24T01:59:54.979Z,42.22
2022-11-24T02:00:54.778Z,40.93
2022-11-24T02:01:54.644Z,40.93
2022-11-24T02:02:54.624Z,41.09
2022-11-24T02:03:54.616Z,41.25
2022-11-24T02:04:54.684Z,39.80
2022-11-24T02:05:54.544Z,40.77
2022-11-24T02:06:54.522Z,42.38
2022-11-24T02:07:54.607Z,42.22
2022-11-24T02:08:54.535Z,45.12
2022-11-24T02:09:55.052Z,41.89
2022-11-24T02:10:54.475Z,42.86
2022-11-24T02:11:54.465Z,40.93
2022-11-24T02:12:54.449Z,60.75
2022-11-24T02:13:54.461Z,40.44
2022-11-24T02:14:54.442Z,41.25
2022-11-24T02:15:54.480Z,41.57
2022-11-24T02:16:54.473Z,41.09
2022-11-24T02:17:54.377Z,40.44
2022-11-24T02:18:54.398Z,40.61
2022-11-24T02:19:54.355Z,40.44
2022-11-24T02:20:54.343Z,40.44
2022-11-24T02:21:54.358Z,40.44
2022-11-24T02:22:54.310Z,39.16
2022-11-24T02:23:54.330Z,40.44
2022-11-24T02:24:54.294Z,47.05
2022-11-24T02:25:54.303Z,40.93
2022-11-24T02:26:54.271Z,39.96
2022-11-24T02:27:54.455Z,41.09
2022-11-24T02:28:54.244Z,41.57
2022-11-24T02:29:54.214Z,72.99
2022-11-24T02:30:54.267Z,56.40
2022-11-24T02:31:54.192Z,61.07
2022-11-24T02:32:54.183Z,44.31
2022-11-24T02:33:54.204Z,47.70
2022-11-24T03:00:34.343Z,40.44
2022-11-24T03:01:32.657Z,41.09
2022-11-24T03:02:32.652Z,41.09
2022-11-24T03:03:32.625Z,44.79
2022-11-24T03:04:33.011Z,39.80
2022-11-24T03:05:32.600Z,54.30
2022-11-24T03:06:31.545Z,52.53
2022-11-24T03:07:32.624Z,39.16
2022-11-24T03:08:32.519Z,40.12
2022-11-24T03:09:32.520Z,40.12
2022-11-24T03:10:32.507Z,39.96
2022-11-24T03:11:32.499Z,48.66
2022-11-24T03:12:32.478Z,41.25
2022-11-24T03:13:32.526Z,40.77
2022-11-24T03:14:32.905Z,41.57
2022-11-24T03:15:32.484Z,42.38
2022-11-24T03:16:32.436Z,43.99
2022-11-24T03:17:32.422Z,42.06
2022-11-24T03:18:32.392Z,41.09
2022-11-24T03:19:32.392Z,41.09
2022-11-24T03:20:32.378Z,40.12
2022-11-24T03:21:31.347Z,41.09
2022-11-24T03:22:32.363Z,43.51
2022-11-24T03:23:32.337Z,48.82
2022-11-24T03:24:31.495Z,42.54
2022-11-24T03:25:32.336Z,43.99
2022-11-24T04:47:59.653Z,80.73
2022-11-24T04:49:00.651Z,54.79
2022-11-24T05:09:47.936Z,58.81
2022-11-24T05:10:00.719Z,51.08
2022-11-24T05:17:26.873Z,48.34
2022-11-24T05:17:59.708Z,44.63
2022-11-24T05:18:59.746Z,45.44
2022-11-24T05:24:31.076Z,56.72
2022-11-24T05:31:22.854Z,63.81
2022-11-24T05:32:23.825Z,53.98
2022-11-24T05:36:54.576Z,49.95
2022-11-24T05:37:53.807Z,73.96
2022-11-24T05:38:53.796Z,74.28
2022-11-24T05:39:53.777Z,73.96
2022-11-24T05:40:53.808Z,74.28
2022-11-24T05:41:53.756Z,64.78
2022-11-24T05:42:53.755Z,61.71
2022-11-24T05:43:53.738Z,76.05
2022-11-24T05:44:53.713Z,60.91
2022-11-24T05:45:53.757Z,73.48
2022-11-24T05:46:53.789Z,46.25
2022-11-24T05:47:53.704Z,53.50
2022-11-24T05:48:53.674Z,69.77
2022-11-24T05:49:53.658Z,53.33
2022-11-24T05:50:53.650Z,80.57
2022-11-24T05:51:53.621Z,54.62
2022-11-24T05:52:53.614Z,60.75
2022-11-24T05:53:53.612Z,75.41
2022-11-24T05:54:53.599Z,68.96
2022-11-24T05:55:53.596Z,64.45
2022-11-24T05:56:53.558Z,47.53
2022-11-24T05:57:53.558Z,55.43
2022-11-24T05:58:53.543Z,72.51
2022-11-24T05:59:53.518Z,74.93
2022-11-24T06:00:53.532Z,74.93
2022-11-24T06:01:53.591Z,67.03
2022-11-24T06:02:53.573Z,74.44
2022-11-24T06:03:53.476Z,73.96
2022-11-24T06:04:53.462Z,64.78
2022-11-24T06:05:53.433Z,69.29
2022-11-24T06:06:53.438Z,50.43
2022-11-24T06:07:53.543Z,52.53
2022-11-24T06:08:53.415Z,60.42
2022-11-24T06:09:53.382Z,81.37
2022-11-24T06:10:53.392Z,76.86
2022-11-24T06:11:53.609Z,76.22
2022-11-24T06:12:53.361Z,50.92
2022-11-24T06:13:53.447Z,71.54
2022-11-24T06:14:53.348Z,68.32
2022-11-24T06:15:53.345Z,70.09
2022-11-24T06:16:53.350Z,73.64
2022-11-24T06:17:53.330Z,72.51
2022-11-24T06:18:53.288Z,72.99
2022-11-24T06:19:53.260Z,63.33
2022-11-24T06:21:09.811Z,73.64
2022-11-24T06:21:53.240Z,77.50
2022-11-24T06:22:53.219Z,55.27
2022-11-24T06:23:53.208Z,56.72
2022-11-24T06:24:53.192Z,48.66
2022-11-24T06:25:53.192Z,75.57
2022-11-24T06:26:53.158Z,72.51
2022-11-24T06:27:53.222Z,58.81
2022-11-24T06:28:53.150Z,48.50
2022-11-24T06:29:53.118Z,50.11
2022-11-24T06:30:53.115Z,73.32
2022-11-24T06:31:53.224Z,69.45
2022-11-24T06:32:53.098Z,53.82
2022-11-24T06:33:53.065Z,86.37
2022-11-24T06:34:53.075Z,72.51
2022-11-24T06:35:53.061Z,77.34
2022-11-24T06:36:54.120Z,71.38
2022-11-24T06:37:53.027Z,61.71
2022-11-24T06:38:52.999Z,59.14
2022-11-24T06:39:52.991Z,56.40
2022-11-24T06:40:52.972Z,70.42
2022-11-24T06:41:52.952Z,68.80
2022-11-24T06:42:52.972Z,52.05
2022-11-24T06:43:52.940Z,72.99
2022-11-24T06:44:52.927Z,71.06
2022-11-24T06:45:52.946Z,74.77
2022-11-24T06:46:52.888Z,63.33
2022-11-24T06:47:52.894Z,58.81
2022-11-24T06:48:52.880Z,54.62
2022-11-24T06:49:52.847Z,52.21
2022-11-24T06:50:52.836Z,49.95
2022-11-24T06:51:52.876Z,49.47
2022-11-24T06:52:52.825Z,67.19
2022-11-24T06:53:52.830Z,62.20
2022-11-24T06:54:52.783Z,73.32
2022-11-24T06:55:52.766Z,58.17
2022-11-24T06:56:52.788Z,56.24
2022-11-24T06:57:52.758Z,60.75
2022-11-24T06:58:52.787Z,60.42
2022-11-24T06:59:52.714Z,58.17
2022-11-24T07:00:52.746Z,66.06
2022-11-24T07:01:52.735Z,68.96
2022-11-24T07:02:52.742Z,55.27
2022-11-24T07:03:52.666Z,54.46
2022-11-24T07:04:52.664Z,58.97
2022-11-24T07:05:52.650Z,49.31
2022-11-24T07:06:52.624Z,57.04
2022-11-24T07:07:52.696Z,69.61
2022-11-24T07:08:52.618Z,51.88
2022-11-24T07:09:53.562Z,53.33
2022-11-24T07:10:52.570Z,49.95
2022-11-24T07:11:52.553Z,51.08
2022-11-24T07:12:52.558Z,64.61
2022-11-24T07:13:58.146Z,58.49
2022-11-24T07:14:52.516Z,72.51
2022-11-24T07:15:52.548Z,52.21
2022-11-24T07:16:53.514Z,58.17
2022-11-24T07:17:52.496Z,77.50
2022-11-24T07:18:52.473Z,50.92
2022-11-24T07:19:52.440Z,73.32
2022-11-24T07:20:52.436Z,63.49
2022-11-24T07:21:52.419Z,65.58
2022-11-24T07:22:52.421Z,56.88
2022-11-24T07:23:52.401Z,60.26
2022-11-24T07:24:52.391Z,68.64
2022-11-24T07:25:52.451Z,78.15
2022-11-24T07:26:52.378Z,62.04
2022-11-24T07:27:52.364Z,55.91
2022-11-24T07:28:52.360Z,55.59
2022-11-24T07:29:51.311Z,68.32
2022-11-24T07:30:52.310Z,55.11
2022-11-24T07:31:52.387Z,73.32
2022-11-24T07:32:52.289Z,54.46
2022-11-24T07:33:52.324Z,55.11
2022-11-24T07:34:52.264Z,71.22
2022-11-24T07:35:52.241Z,68.96
2022-11-24T07:38:13.604Z,54.46
2022-11-24T07:39:14.623Z,61.23
2022-11-24T07:40:14.555Z,73.48
2022-11-24T07:41:14.541Z,66.55
2022-11-24T07:42:14.578Z,75.73
2022-11-24T07:43:19.824Z,70.09
2022-11-24T07:44:14.521Z,71.22
2022-11-24T07:45:15.680Z,78.15
2022-11-24T07:46:14.587Z,69.13
2022-11-24T07:47:14.469Z,56.72
2022-11-24T07:48:14.444Z,64.61
2022-11-24T07:49:14.446Z,60.75
2022-11-24T07:50:14.454Z,58.97
2022-11-24T07:51:14.435Z,72.19
2022-11-24T07:52:14.408Z,63.65
2022-11-24T07:53:14.409Z,69.13
2022-11-24T07:54:14.396Z,59.46
2022-11-24T07:55:14.427Z,59.46
2022-11-24T07:56:14.403Z,77.50
2022-11-24T07:57:14.391Z,60.42
2022-11-24T07:58:14.308Z,61.55
2022-11-24T07:59:16.397Z,72.51
2022-11-24T08:00:14.294Z,49.79
2022-11-24T08:01:14.389Z,63.97
2022-11-24T08:02:14.315Z,48.18
2022-11-24T08:03:14.334Z,60.10
2022-11-24T08:04:14.306Z,57.52
2022-11-24T08:05:14.218Z,50.43
2022-11-24T08:06:36.293Z,59.14
2022-11-24T08:07:14.251Z,50.27
2022-11-24T08:08:14.180Z,62.36
2022-11-24T08:09:14.169Z,61.71
2022-11-24T08:10:14.149Z,56.40
2022-11-24T08:11:14.206Z,51.24
2022-11-24T08:12:14.133Z,57.36
2022-11-24T08:13:14.192Z,68.32
2022-11-24T08:14:14.108Z,50.27
2022-11-24T08:15:14.075Z,54.14
2022-11-24T08:16:14.148Z,56.88
2022-11-24T08:17:14.984Z,54.30
2022-11-24T08:18:14.070Z,69.29
2022-11-24T08:19:14.112Z,62.52
2022-11-24T08:20:14.027Z,74.44
2022-11-24T08:21:14.020Z,47.05
2022-11-24T08:22:13.993Z,52.69
2022-11-24T08:23:13.986Z,62.84
2022-11-24T08:24:13.976Z,54.30
2022-11-24T08:25:13.948Z,68.32
2022-11-24T08:26:13.962Z,60.10
2022-11-24T08:27:13.921Z,73.32
2022-11-24T08:28:13.900Z,65.26
2022-11-24T08:29:13.906Z,54.30
2022-11-24T08:30:13.883Z,67.19
2022-11-24T08:31:13.890Z,56.24
2022-11-24T08:32:18.862Z,55.43
2022-11-24T08:33:13.848Z,47.70
2022-11-24T08:34:13.835Z,55.91
2022-11-24T08:35:14.512Z,62.36
2022-11-24T08:45:20.893Z,74.44
2022-11-24T08:46:38.412Z,66.55
2022-11-24T08:47:17.303Z,67.84
2022-11-24T08:48:38.358Z,61.39
2022-11-24T08:49:17.283Z,51.72
2022-11-24T08:50:17.248Z,68.32
2022-11-24T08:51:17.241Z,66.23
2022-11-24T08:52:17.246Z,72.19
2022-11-24T08:53:17.212Z,73.96
2022-11-24T08:54:23.535Z,65.58
2022-11-24T08:55:17.181Z,68.48
2022-11-24T08:56:17.216Z,60.59
2022-11-24T08:57:21.607Z,78.47
2022-11-24T08:58:17.151Z,73.64
2022-11-24T08:59:19.323Z,72.35
2022-11-24T09:00:17.195Z,52.21
2022-11-24T09:01:17.203Z,71.54
2022-11-24T09:03:32.289Z,58.17
2022-11-24T09:04:30.204Z,61.87
2022-11-24T09:05:51.114Z,53.50
2022-11-24T09:09:09.342Z,74.44
2022-11-24T09:10:10.089Z,51.56
2022-11-24T09:11:10.079Z,79.92
2022-11-24T09:12:14.558Z,49.95
2022-11-24T09:13:10.099Z,62.04
2022-11-24T09:14:10.074Z,69.93
2022-11-24T09:15:10.022Z,73.32
2022-11-24T09:17:58.702Z,67.51
2022-11-24T09:18:29.934Z,59.30
2022-11-24T09:19:24.487Z,69.29
2022-11-24T09:20:24.495Z,59.46
2022-11-24T09:23:04.717Z,72.51
2022-11-24T09:24:36.752Z,72.99
2022-11-24T09:25:05.682Z,65.58
2022-11-24T09:26:05.698Z,69.93
2022-11-24T09:27:26.659Z,60.10
2022-11-24T09:29:20.900Z,61.39
2022-11-24T09:30:17.581Z,72.51
2022-11-24T09:33:08.323Z,58.17
2022-11-24T09:34:07.191Z,55.27
2022-11-24T09:35:21.447Z,69.93
2022-11-24T10:47:31.611Z,59.46
2022-11-24T10:48:29.972Z,70.90
2022-11-24T10:49:29.939Z,56.56
2022-11-24T10:50:31.011Z,71.22
2022-11-24T10:51:29.951Z,76.22
2022-11-24T10:52:29.956Z,77.18
2022-11-24T10:53:29.901Z,71.38
2022-11-24T10:54:29.892Z,75.09
2022-11-24T10:55:29.882Z,53.98
2022-11-24T10:56:29.866Z,60.59
2022-11-24T10:57:29.844Z,54.79
2022-11-24T10:58:34.426Z,76.54
2022-11-24T10:59:29.836Z,71.22
2022-11-24T11:00:29.812Z,69.77
2022-11-24T11:01:29.851Z,72.19
2022-11-24T11:02:30.115Z,71.22
2022-11-24T11:03:29.764Z,49.31
2022-11-24T11:04:29.777Z,63.97
2022-11-24T11:05:29.742Z,50.27
2022-11-24T11:06:29.748Z,72.19
2022-11-24T11:07:29.819Z,66.87
2022-11-24T11:08:29.722Z,67.35
2022-11-24T11:09:29.698Z,57.20
2022-11-24T11:10:29.683Z,62.68
2022-11-24T11:11:29.834Z,68.00
2022-11-24T11:12:43.978Z,70.42
2022-11-24T11:13:29.649Z,69.77
2022-11-24T11:14:29.624Z,64.78
2022-11-24T11:15:29.788Z,66.39
2022-11-24T11:16:29.654Z,68.48
2022-11-24T11:17:29.576Z,59.62
2022-11-24T11:18:29.564Z,57.20
2022-11-24T11:20:29.584Z,74.60
2022-11-24T11:21:29.554Z,72.03
2022-11-24T11:22:29.514Z,76.05
2022-11-24T11:23:29.603Z,72.51
2022-11-24T11:24:29.921Z,70.58
2022-11-24T11:25:29.834Z,54.79
2022-11-24T11:26:30.656Z,57.69
2022-11-24T11:27:29.745Z,70.90
2022-11-24T11:28:31.075Z,64.13
2022-11-24T11:31:29.441Z,54.79
2022-11-24T11:34:30.456Z,50.43
2022-11-24T11:35:29.343Z,67.19
2022-11-24T11:36:29.333Z,71.06
2022-11-24T11:37:29.336Z,75.41
2022-11-24T11:38:29.317Z,50.76
2022-11-24T11:39:29.280Z,75.73
2022-11-24T11:40:29.315Z,68.00
2022-11-24T11:41:29.315Z,70.09
2022-11-24T11:43:00.658Z,76.05
2022-11-24T11:43:29.233Z,59.78
2022-11-24T11:44:29.248Z,48.02
2022-11-24T11:45:29.265Z,52.53
2022-11-24T11:46:29.328Z,54.46
2022-11-24T11:47:29.170Z,54.62
2022-11-24T11:48:31.433Z,62.52
2022-11-24T11:49:29.150Z,54.14
2022-11-24T11:50:29.170Z,48.34
2022-11-24T11:51:29.256Z,58.81
2022-11-24T11:52:29.131Z,48.18
2022-11-24T11:53:29.110Z,71.70
2022-11-24T11:54:29.089Z,53.98
2022-11-24T11:55:29.063Z,50.92
2022-11-24T11:56:29.075Z,52.37
2022-11-24T11:57:29.037Z,66.39
2022-11-24T11:58:29.029Z,70.09
2022-11-24T11:59:29.009Z,69.45
2022-11-24T12:00:29.034Z,63.16
2022-11-24T12:01:28.976Z,54.30
2022-11-24T12:02:29.168Z,55.11
2022-11-24T12:03:29.034Z,64.29
2022-11-24T12:04:29.032Z,66.87
2022-11-24T12:05:28.940Z,62.36
2022-11-24T12:06:28.944Z,57.52
2022-11-24T12:07:30.293Z,65.74
2022-11-24T12:08:29.160Z,49.31
2022-11-24T12:09:30.621Z,75.25
2022-11-24T12:11:46.936Z,68.96
2022-11-24T12:11:56.279Z,64.13
2022-11-24T12:12:53.922Z,69.13
2022-11-24T12:13:53.916Z,68.32
2022-11-24T12:14:53.897Z,73.80
2022-11-24T12:15:53.907Z,80.41
2022-11-24T12:16:53.877Z,61.55
2022-11-24T12:17:53.850Z,66.55
2022-11-24T12:18:58.189Z,55.59
2022-11-24T12:19:53.826Z,48.66
2022-11-24T12:20:53.831Z,54.95
2022-11-24T12:21:53.829Z,69.13
2022-11-24T12:22:53.871Z,72.83
2022-11-24T12:23:53.775Z,53.66
2022-11-24T12:24:53.769Z,65.58
2022-11-24T12:25:53.756Z,69.61
2022-11-24T12:26:53.754Z,59.30
2022-11-24T12:27:53.758Z,65.90
2022-11-24T12:28:53.716Z,73.48
2022-11-24T12:29:53.706Z,66.23
2022-11-24T12:30:53.755Z,50.76
2022-11-24T12:31:53.713Z,64.61
2022-11-24T12:32:53.667Z,72.03
2022-11-24T12:33:57.970Z,78.63
2022-11-24T12:34:53.739Z,50.76
2022-11-24T12:35:53.618Z,54.79
2022-11-24T12:36:53.625Z,64.29
2022-11-24T12:37:53.600Z,68.96
2022-11-24T12:38:53.574Z,68.96
2022-11-24T12:39:53.713Z,71.70
2022-11-24T12:41:06.459Z,49.63
2022-11-24T12:41:53.569Z,64.45
2022-11-24T12:42:53.534Z,64.94
2022-11-24T12:43:53.511Z,49.15
2022-11-24T12:44:53.518Z,60.10
2022-11-24T12:45:53.479Z,64.78
2022-11-24T12:46:53.528Z,48.50
2022-11-24T12:47:53.469Z,57.04
2022-11-24T12:48:53.490Z,72.19
2022-11-24T12:49:53.436Z,57.52
2022-11-24T12:50:53.441Z,65.90
2022-11-24T12:51:53.414Z,63.33
2022-11-24T12:52:58.679Z,63.49
2022-11-24T12:53:53.386Z,56.40
2022-11-24T12:54:53.484Z,54.14
2022-11-24T12:55:53.373Z,57.85
2022-11-24T12:56:53.359Z,53.98
2022-11-24T12:57:53.322Z,64.61
2022-11-24T12:58:53.339Z,50.92
2022-11-24T12:59:53.293Z,49.95
2022-11-24T13:00:53.309Z,68.80
2022-11-24T13:01:53.423Z,60.59
2022-11-24T13:02:53.375Z,56.07
2022-11-24T13:03:53.242Z,64.78
2022-11-24T13:04:53.233Z,69.93
2022-11-24T13:05:53.252Z,46.89
2022-11-24T13:06:53.221Z,49.63
2022-11-24T13:07:53.241Z,64.45
2022-11-24T13:08:53.205Z,55.59
2022-11-24T13:09:53.195Z,56.88
2022-11-24T13:10:56.369Z,59.46
2022-11-24T13:11:53.144Z,57.85
2022-11-24T13:12:53.165Z,66.06
2022-11-24T13:13:53.117Z,48.82
2022-11-24T13:14:53.102Z,67.84
2022-11-24T13:16:07.157Z,48.66
2022-11-24T13:17:27.565Z,52.53
2022-11-24T13:18:07.184Z,72.19
2022-11-24T13:18:53.120Z,63.49
2022-11-24T13:19:53.025Z,53.50
2022-11-24T13:20:53.031Z,71.70
2022-11-24T13:21:53.017Z,69.77
2022-11-24T13:22:52.999Z,50.92
2022-11-24T13:23:53.030Z,73.15
2022-11-24T13:24:52.973Z,53.98
2022-11-24T13:25:52.951Z,69.61
2022-11-24T13:26:52.950Z,72.35
2022-11-24T13:27:52.949Z,70.74
2022-11-24T13:29:03.577Z,51.88
2022-11-24T13:29:53.035Z,61.39
2022-11-24T13:30:53.121Z,52.85
2022-11-24T13:31:52.892Z,57.04
2022-11-24T13:33:03.445Z,72.03
2022-11-24T13:33:54.080Z,52.21
2022-11-24T13:35:15.193Z,61.07
2022-11-24T13:36:16.260Z,56.88
2022-11-24T13:37:31.244Z,65.10
2022-11-24T13:37:52.795Z,58.33
2022-11-24T13:41:44.914Z,69.13
2022-11-24T13:42:43.116Z,68.96
2022-11-24T13:43:22.778Z,49.47
2022-11-24T13:44:22.766Z,74.93
2022-11-24T13:45:44.887Z,59.46
2022-11-24T13:46:22.738Z,68.96
2022-11-24T13:47:22.745Z,68.48
2022-11-24T13:48:22.974Z,67.03
2022-11-24T13:49:22.766Z,65.10
2022-11-24T13:50:22.654Z,53.01
2022-11-24T13:51:22.704Z,74.12
2022-11-24T13:58:22.325Z,61.39
2022-11-24T13:59:21.655Z,66.39
2022-11-24T14:00:21.643Z,69.61
2022-11-24T14:01:21.709Z,58.97
2022-11-24T14:02:22.744Z,72.03
2022-11-24T14:03:21.705Z,60.10
2022-11-24T14:04:31.134Z,63.97
2022-11-24T14:05:21.592Z,49.31
2022-11-24T14:06:21.560Z,50.11
2022-11-24T14:07:21.597Z,48.98
2022-11-24T14:08:21.542Z,46.57
2022-11-24T14:09:21.522Z,59.78
2022-11-24T14:10:21.497Z,56.72
2022-11-24T14:11:21.541Z,58.97
2022-11-24T14:12:21.544Z,52.85
2022-11-24T14:13:21.477Z,68.48
2022-11-24T14:14:21.460Z,56.40
2022-11-24T14:15:21.460Z,70.58
2022-11-24T14:16:21.471Z,66.06
2022-11-24T14:17:21.404Z,62.84
2022-11-24T14:18:21.424Z,57.69
2022-11-24T14:19:21.379Z,71.38
2022-11-24T14:20:21.391Z,54.14
2022-11-24T14:21:21.423Z,66.55
2022-11-24T14:22:21.434Z,49.79
2022-11-24T14:23:21.357Z,63.00
2022-11-24T14:24:21.320Z,68.16
2022-11-24T14:25:21.321Z,72.19
2022-11-24T14:26:21.295Z,66.71
2022-11-24T14:27:21.285Z,62.04
2022-11-24T14:28:21.350Z,70.42
2022-11-24T14:29:21.255Z,52.85
2022-11-24T14:30:21.252Z,70.42
2022-11-24T14:31:21.315Z,69.13
2022-11-24T14:32:21.207Z,65.90
2022-11-24T14:33:21.200Z,65.90
2022-11-24T14:34:21.182Z,72.03
2022-11-24T14:35:21.375Z,66.23
2022-11-24T14:36:21.165Z,68.16
2022-11-24T14:37:21.176Z,50.92
2022-11-24T14:38:21.152Z,55.11
2022-11-24T14:39:21.122Z,70.90
2022-11-24T14:40:21.122Z,77.18
2022-11-24T14:41:21.092Z,74.12
2022-11-24T14:42:21.102Z,76.05
2022-11-24T14:43:21.067Z,69.45
2022-11-24T14:44:21.053Z,69.29
2022-11-24T14:45:21.046Z,73.96
2022-11-24T14:46:21.119Z,66.87
2022-11-24T14:47:23.487Z,72.19
2022-11-24T14:48:21.034Z,68.48
2022-11-24T14:49:20.999Z,69.29
2022-11-24T14:50:21.033Z,60.91
2022-11-24T14:51:20.961Z,65.26
2022-11-24T14:52:20.962Z,71.38
2022-11-24T14:53:25.894Z,66.87
2022-11-24T14:54:20.942Z,55.91
2022-11-24T14:55:23.215Z,64.45
2022-11-24T14:56:20.889Z,59.14
2022-11-24T14:57:20.904Z,56.24
2022-11-24T14:58:20.859Z,57.69
2022-11-24T14:59:20.860Z,62.68
2022-11-24T15:00:20.885Z,70.90
2022-11-24T15:01:20.946Z,65.58
2022-11-24T15:02:20.890Z,72.67
2022-11-24T15:03:20.787Z,59.78
2022-11-24T15:04:46.269Z,51.24
2022-11-24T15:05:20.781Z,56.07
2022-11-24T15:06:20.779Z,65.90
2022-11-24T15:07:20.790Z,66.39
2022-11-24T15:08:20.726Z,63.81
2022-11-24T15:09:20.729Z,72.83
2022-11-24T15:10:20.702Z,58.33
2022-11-24T15:11:20.721Z,59.94
2022-11-24T15:12:20.677Z,61.39
2022-11-24T15:13:20.670Z,73.15
2022-11-24T15:14:20.651Z,64.29
2022-11-24T15:16:36.630Z,52.53
2022-11-24T15:17:37.573Z,59.14
2022-11-24T15:18:37.623Z,69.93
2022-11-24T15:19:37.527Z,50.43
2022-11-24T15:22:06.516Z,71.22
2022-11-24T15:22:50.692Z,66.39
2022-11-24T15:23:50.699Z,67.35
2022-11-24T15:24:50.654Z,71.38
2022-11-24T15:25:50.642Z,69.77
2022-11-24T15:26:50.635Z,48.82
2022-11-24T15:27:50.660Z,71.06
2022-11-24T15:28:50.632Z,74.28
2022-11-24T15:29:50.604Z,70.58
2022-11-24T15:30:50.575Z,71.54
2022-11-24T15:31:52.860Z,69.93
2022-11-24T15:32:50.564Z,55.59
2022-11-24T15:33:50.572Z,61.87
2022-11-24T15:34:50.533Z,67.68
2022-11-24T15:35:50.529Z,68.32
2022-11-24T15:36:50.503Z,70.90
2022-11-24T15:37:50.504Z,67.35
2022-11-24T15:38:50.482Z,66.39
2022-11-24T15:39:50.497Z,65.58
2022-11-24T15:40:50.484Z,53.98
2022-11-24T15:41:50.486Z,59.30
2022-11-24T15:42:50.432Z,56.88
2022-11-24T15:43:50.407Z,63.49
2022-11-24T15:44:50.402Z,71.06
2022-11-24T15:45:50.407Z,72.67
2022-11-24T15:46:50.393Z,52.37
2022-11-24T15:47:50.371Z,75.09
2022-11-24T15:48:50.343Z,66.71
2022-11-24T15:49:50.343Z,63.81
2022-11-24T15:50:50.318Z,57.04
2022-11-24T15:51:50.319Z,60.42
2022-11-24T15:52:50.303Z,62.84
2022-11-24T15:53:51.145Z,70.25
2022-11-24T15:54:50.348Z,60.91
2022-11-24T15:55:50.261Z,75.57
2022-11-24T15:56:50.321Z,66.39
2022-11-24T15:57:50.245Z,62.20
2022-11-24T15:58:50.207Z,69.13
2022-11-24T15:59:50.197Z,58.97
2022-11-24T16:00:50.359Z,71.38
2022-11-24T16:01:50.343Z,64.29
2022-11-24T16:02:50.172Z,72.83
2022-11-24T16:03:50.159Z,57.69
2022-11-24T16:04:50.173Z,60.26
2022-11-24T16:05:50.118Z,65.90
2022-11-24T16:06:50.105Z,59.78
2022-11-24T16:07:50.175Z,67.84
2022-11-24T16:08:50.079Z,61.87
2022-11-24T16:09:50.175Z,61.55
2022-11-24T16:10:50.052Z,67.03
2022-11-24T16:11:50.051Z,72.99
2022-11-24T16:12:50.032Z,75.57
2022-11-24T16:13:53.060Z,70.90
2022-11-24T16:14:50.000Z,72.03
2022-11-24T16:15:50.115Z,69.45
2022-11-24T16:16:50.034Z,59.46
2022-11-24T16:17:50.003Z,58.65
2022-11-24T16:18:49.940Z,61.55
2022-11-24T16:19:59.803Z,69.77
2022-11-24T16:20:49.937Z,71.38
2022-11-24T16:21:49.913Z,60.59
2022-11-24T16:22:49.890Z,73.48
2022-11-24T16:23:49.883Z,70.58
2022-11-24T16:24:49.904Z,73.80
2022-11-24T16:25:49.855Z,72.99
2022-11-24T16:26:49.860Z,56.72
2022-11-24T16:27:49.856Z,61.07
2022-11-24T16:28:49.836Z,73.48
2022-11-24T16:29:49.804Z,56.24
2022-11-24T16:30:49.815Z,57.85
2022-11-24T16:31:49.945Z,56.72
2022-11-24T16:32:49.769Z,70.90
2022-11-24T16:33:49.788Z,49.95
2022-11-24T16:34:49.757Z,74.77
2022-11-24T16:35:49.717Z,51.24
2022-11-24T16:36:49.734Z,65.42
2022-11-24T16:37:49.708Z,69.93
2022-11-24T16:38:49.743Z,70.74
2022-11-24T16:39:50.345Z,68.48
2022-11-24T16:40:49.694Z,72.83
2022-11-24T16:41:49.641Z,53.98
2022-11-24T16:42:49.629Z,72.51
2022-11-24T16:43:49.646Z,49.95
2022-11-24T16:44:49.616Z,59.62
2022-11-24T16:45:49.604Z,62.68
2022-11-24T16:46:49.575Z,68.32
2022-11-24T16:47:49.556Z,60.59
2022-11-24T16:48:49.568Z,63.97
2022-11-24T16:49:49.573Z,73.96
2022-11-24T16:50:49.540Z,61.55
2022-11-24T16:51:49.496Z,53.33
2022-11-24T16:52:49.491Z,64.61
2022-11-24T16:53:49.477Z,70.58
2022-11-24T16:54:49.497Z,51.88
2022-11-24T16:55:49.474Z,55.43
2022-11-24T16:56:49.462Z,64.13
2022-11-24T16:57:49.415Z,59.14
2022-11-24T16:58:49.429Z,57.52
2022-11-24T16:59:49.429Z,66.87
2022-11-24T17:00:49.402Z,71.54
2022-11-24T17:01:49.482Z,54.62
2022-11-24T17:02:49.454Z,65.26
2022-11-24T17:03:49.340Z,65.74
2022-11-24T17:04:49.448Z,53.66
2022-11-24T17:05:49.334Z,53.82
2022-11-24T17:06:49.305Z,54.95
2022-11-24T17:07:50.791Z,51.24